createdAt,value
2018-08-13T00:02:02.587Z,3.07
2018-08-13T00:04:31.903Z,2.70
2018-08-13T00:07:01.258Z,3.70
2018-08-13T00:09:35.659Z,3.10
2018-08-13T00:12:05.523Z,3.07
2018-08-13T00:14:34.971Z,3.30
2018-08-13T00:17:04.303Z,3.30
2018-08-13T00:19:33.910Z,3.43
2018-08-13T00:22:03.331Z,3.40
2018-08-13T00:24:32.651Z,3.37
2018-08-13T00:27:02.004Z,3.20
2018-08-13T00:29:31.308Z,3.50
2018-08-13T00:32:00.626Z,3.40
2018-08-13T00:34:29.927Z,3.00
2018-08-13T00:36:59.287Z,3.33
2018-08-13T00:39:28.594Z,3.60
2018-08-13T00:41:57.932Z,3.10
2018-08-13T00:44:27.248Z,3.10
2018-08-13T00:46:56.604Z,3.47
2018-08-13T00:49:25.944Z,3.43
2018-08-13T00:51:55.655Z,3.47
2018-08-13T00:54:24.966Z,3.03
2018-08-13T00:56:54.326Z,4.57
2018-08-13T00:59:23.612Z,3.07
2018-08-13T01:01:52.969Z,3.30
2018-08-13T01:04:22.304Z,3.20
2018-08-13T01:06:51.814Z,3.07
2018-08-13T01:09:21.149Z,2.90
2018-08-13T01:11:50.454Z,3.03
2018-08-13T01:14:19.778Z,3.00
2018-08-13T01:16:49.071Z,2.80
2018-08-13T01:19:18.391Z,3.57
2018-08-13T01:21:47.667Z,3.70
2018-08-13T01:24:16.964Z,3.03
2018-08-13T01:26:46.254Z,3.97
2018-08-13T01:29:15.546Z,3.70
2018-08-13T01:31:44.866Z,3.17
2018-08-13T01:34:14.172Z,2.90
2018-08-13T01:36:43.491Z,3.20
2018-08-13T01:39:12.810Z,3.50
2018-08-13T01:41:42.109Z,3.27
2018-08-13T01:44:11.450Z,3.53
2018-08-13T01:46:40.725Z,3.70
2018-08-13T01:49:10.062Z,3.70
2018-08-13T01:51:39.396Z,3.90
2018-08-13T01:54:08.703Z,3.50
2018-08-13T01:56:38.179Z,4.27
2018-08-13T01:59:07.533Z,4.03
2018-08-13T02:01:36.868Z,3.90
2018-08-13T02:04:06.155Z,4.20
2018-08-13T02:06:35.494Z,3.60
2018-08-13T02:09:07.537Z,4.07
2018-08-13T02:11:36.861Z,3.80
2018-08-13T02:14:06.966Z,4.50
2018-08-13T02:16:36.292Z,4.13
2018-08-13T02:19:05.689Z,4.93
2018-08-13T02:21:35.055Z,4.53
2018-08-13T02:24:04.369Z,4.73
2018-08-13T02:26:33.706Z,4.53
2018-08-13T02:29:03.030Z,4.30
2018-08-13T02:31:32.372Z,3.77
2018-08-13T02:34:01.718Z,4.00
2018-08-13T02:36:31.087Z,4.00
2018-08-13T02:39:00.462Z,4.40
2018-08-13T02:41:29.774Z,3.93
2018-08-13T02:43:59.516Z,3.57
2018-08-13T02:46:28.877Z,4.17
2018-08-13T02:48:58.233Z,3.90
2018-08-13T02:51:27.598Z,4.20
2018-08-13T02:53:56.886Z,4.23
2018-08-13T02:56:26.327Z,4.27
2018-08-13T02:58:56.712Z,5.17
2018-08-13T03:01:26.106Z,4.97
2018-08-13T03:03:55.444Z,3.67
2018-08-13T03:06:24.770Z,4.50
2018-08-13T03:08:54.150Z,5.00
2018-08-13T03:11:23.437Z,4.83
2018-08-13T03:13:53.761Z,4.70
2018-08-13T03:16:24.518Z,4.80
2018-08-13T03:18:54.439Z,4.87
2018-08-13T03:21:23.745Z,5.00
2018-08-13T03:23:53.104Z,4.17
2018-08-13T03:26:22.419Z,4.73
2018-08-13T03:28:51.755Z,4.10
2018-08-13T03:31:21.112Z,4.40
2018-08-13T03:33:50.433Z,3.97
2018-08-13T03:36:19.746Z,5.77
2018-08-13T03:38:49.067Z,4.70
2018-08-13T03:41:18.404Z,4.73
2018-08-13T03:43:47.705Z,5.13
2018-08-13T03:46:17.173Z,4.37
2018-08-13T03:48:46.563Z,4.97
2018-08-13T03:51:15.838Z,4.40
2018-08-13T03:53:45.162Z,4.83
2018-08-13T03:56:14.438Z,4.57
2018-08-13T03:58:43.741Z,4.27
2018-08-13T04:01:13.059Z,4.67
2018-08-13T04:03:42.395Z,4.57
2018-08-13T04:06:11.765Z,5.17
2018-08-13T04:08:41.068Z,4.50
2018-08-13T04:11:10.434Z,4.93
2018-08-13T04:13:39.751Z,5.27
2018-08-13T04:16:09.074Z,5.70
2018-08-13T04:18:38.322Z,6.43
2018-08-13T04:21:07.638Z,6.17
2018-08-13T04:23:36.958Z,5.83
2018-08-13T04:26:06.326Z,7.30
2018-08-13T04:28:35.610Z,7.00
2018-08-13T04:31:04.957Z,9.10
2018-08-13T04:33:34.256Z,7.80
2018-08-13T04:36:03.635Z,6.30
2018-08-13T04:38:32.937Z,7.30
2018-08-13T04:41:02.269Z,6.40
2018-08-13T04:43:31.646Z,7.30
2018-08-13T04:46:00.946Z,6.17
2018-08-13T04:48:30.515Z,6.33
2018-08-13T04:50:59.857Z,6.13
2018-08-13T04:53:29.166Z,6.60
2018-08-13T04:55:58.582Z,8.37
2018-08-13T04:58:27.909Z,9.40
2018-08-13T05:00:57.219Z,14.43
2018-08-13T05:03:26.515Z,12.50
2018-08-13T05:05:55.855Z,8.87
2018-08-13T05:08:25.135Z,8.73
2018-08-13T05:10:54.454Z,7.63
2018-08-13T05:13:23.807Z,6.63
2018-08-13T05:15:53.151Z,6.83
2018-08-13T05:18:22.450Z,5.57
2018-08-13T05:20:51.943Z,7.10
2018-08-13T05:23:21.259Z,7.10
2018-08-13T05:25:50.542Z,5.10
2018-08-13T05:28:19.871Z,6.33
2018-08-13T05:30:49.156Z,5.97
2018-08-13T05:33:18.511Z,6.67
2018-08-13T05:35:47.870Z,6.30
2018-08-13T05:38:17.226Z,5.83
2018-08-13T05:40:46.543Z,5.80
2018-08-13T05:43:15.859Z,4.93
2018-08-13T05:45:45.180Z,5.77
2018-08-13T05:48:14.536Z,5.47
2018-08-13T05:50:43.847Z,3.90
2018-08-13T05:53:13.134Z,5.60
2018-08-13T05:55:42.409Z,4.20
2018-08-13T05:58:11.724Z,3.77
2018-08-13T06:00:41.039Z,5.00
2018-08-13T06:03:10.401Z,4.63
2018-08-13T06:05:39.851Z,5.70
2018-08-13T06:08:09.158Z,5.00
2018-08-13T06:10:38.817Z,5.10
2018-08-13T06:13:08.173Z,4.57
2018-08-13T06:15:37.492Z,3.80
2018-08-13T06:18:07.184Z,3.70
2018-08-13T06:20:36.532Z,3.17
2018-08-13T06:23:05.905Z,3.20
2018-08-13T06:25:35.223Z,3.37
2018-08-13T06:28:04.534Z,2.83
2018-08-13T06:30:33.874Z,3.33
2018-08-13T06:33:03.168Z,2.50
2018-08-13T06:35:32.572Z,3.83
2018-08-13T06:38:01.875Z,2.97
2018-08-13T06:40:31.234Z,3.83
2018-08-13T06:43:00.514Z,3.63
2018-08-13T06:45:29.881Z,4.97
2018-08-13T06:47:59.198Z,3.00
2018-08-13T06:50:28.551Z,3.70
2018-08-13T06:52:57.834Z,3.30
2018-08-13T06:55:27.165Z,3.43
2018-08-13T06:57:56.448Z,4.13
2018-08-13T07:00:25.755Z,2.97
2018-08-13T07:02:55.052Z,3.13
2018-08-13T07:05:24.358Z,3.40
2018-08-13T07:07:53.635Z,3.07
2018-08-13T07:10:22.995Z,2.87
2018-08-13T07:12:52.325Z,4.27
2018-08-13T07:15:21.659Z,2.80
2018-08-13T07:17:50.979Z,4.20
2018-08-13T07:20:20.323Z,4.27
2018-08-13T07:22:50.200Z,2.67
2018-08-13T07:25:19.691Z,3.60
2018-08-13T07:27:49.019Z,3.10
2018-08-13T07:30:18.332Z,2.80
2018-08-13T07:32:47.667Z,5.57
2018-08-13T07:35:16.944Z,2.60
2018-08-13T07:37:46.275Z,5.00
2018-08-13T07:40:16.669Z,5.47
2018-08-13T07:42:46.412Z,6.13
2018-08-13T07:45:15.702Z,3.60
2018-08-13T07:47:45.044Z,2.87
2018-08-13T07:50:15.328Z,2.90
2018-08-13T07:52:44.691Z,4.83
2018-08-13T07:55:14.324Z,3.50
2018-08-13T07:57:43.674Z,3.33
2018-08-13T08:00:16.049Z,6.20
2018-08-13T08:02:45.611Z,2.80
2018-08-13T08:05:15.331Z,2.87
2018-08-13T08:07:44.663Z,3.97
2018-08-13T08:10:15.139Z,6.90
2018-08-13T08:12:44.497Z,2.43
2018-08-13T08:15:16.538Z,2.73
2018-08-13T08:17:45.925Z,2.77
2018-08-13T08:20:15.232Z,2.20
2018-08-13T08:22:44.719Z,3.60
2018-08-13T08:25:17.095Z,6.20
2018-08-13T08:27:46.485Z,3.13
2018-08-13T08:30:15.823Z,4.03
2018-08-13T08:32:45.131Z,2.83
2018-08-13T08:35:15.654Z,2.33
2018-08-13T08:37:45.061Z,1.90
2018-08-13T08:40:16.378Z,2.30
2018-08-13T08:42:45.686Z,3.47
2018-08-13T08:45:23.087Z,2.73
2018-08-13T08:47:53.132Z,3.50
2018-08-13T08:50:22.523Z,2.43
2018-08-13T08:52:51.865Z,3.33
2018-08-13T08:55:21.342Z,2.20
2018-08-13T08:57:51.048Z,4.03
2018-08-13T09:00:25.355Z,2.50
2018-08-13T09:02:54.706Z,2.27
2018-08-13T09:05:24.086Z,2.77
2018-08-13T09:07:53.827Z,2.87
2018-08-13T09:10:23.184Z,2.90
2018-08-13T09:12:52.514Z,8.50
2018-08-13T09:15:21.930Z,2.80
2018-08-13T09:18:02.459Z,3.43
2018-08-13T09:20:42.924Z,4.83
2018-08-13T09:23:23.262Z,2.93
2018-08-13T09:26:03.686Z,3.63
2018-08-13T09:28:44.150Z,5.97
2018-08-13T09:33:27.120Z,5.00
2018-08-13T09:35:56.934Z,2.67
2018-08-13T09:38:26.611Z,3.93
2018-08-13T09:40:55.983Z,3.33
2018-08-13T09:43:25.574Z,3.17
2018-08-13T09:45:55.063Z,5.30
2018-08-13T09:48:24.423Z,8.57
2018-08-13T09:50:53.760Z,3.10
2018-08-13T09:53:23.056Z,5.73
2018-08-13T09:55:52.366Z,3.50
2018-08-13T09:58:21.658Z,3.57
2018-08-13T10:00:56.294Z,4.57
2018-08-13T10:03:25.624Z,4.07
2018-08-13T10:05:55.000Z,4.00
2018-08-13T10:08:24.280Z,4.47
2018-08-13T10:10:53.638Z,4.37
2018-08-13T10:13:23.002Z,2.87
2018-08-13T10:15:52.353Z,3.63
2018-08-13T10:18:21.707Z,2.57
2018-08-13T10:20:51.043Z,2.97
2018-08-13T10:23:20.354Z,5.43
2018-08-13T10:25:49.670Z,2.70
2018-08-13T10:28:19.014Z,2.53
2018-08-13T10:30:48.315Z,3.77
2018-08-13T10:33:17.643Z,2.97
2018-08-13T10:35:46.935Z,4.27
2018-08-13T10:38:16.239Z,2.80
2018-08-13T10:40:45.727Z,2.47
2018-08-13T10:43:15.046Z,2.13
2018-08-13T10:45:44.350Z,3.67
2018-08-13T10:48:13.683Z,2.10
2018-08-13T10:50:42.996Z,3.37
2018-08-13T10:53:12.332Z,2.10
2018-08-13T10:55:41.627Z,2.20
2018-08-13T10:58:10.974Z,2.10
2018-08-13T11:00:40.274Z,2.30
2018-08-13T11:03:09.603Z,2.30
2018-08-13T11:05:39.138Z,2.30
2018-08-13T11:08:08.451Z,2.23
2018-08-13T11:10:37.837Z,2.07
2018-08-13T11:13:07.174Z,2.00
2018-08-13T11:15:36.514Z,2.67
2018-08-13T11:18:05.889Z,2.60
2018-08-13T11:20:35.267Z,3.67
2018-08-13T11:23:04.678Z,2.80
2018-08-13T11:25:34.010Z,2.37
2018-08-13T11:28:03.306Z,2.40
2018-08-13T11:30:32.650Z,2.60
2018-08-13T11:33:01.963Z,2.77
2018-08-13T11:35:31.304Z,2.43
2018-08-13T11:38:00.599Z,2.80
2018-08-13T11:40:29.913Z,2.43
2018-08-13T11:42:59.202Z,3.10
2018-08-13T11:45:28.566Z,2.87
2018-08-13T11:47:58.207Z,3.03
2018-08-13T11:50:27.578Z,2.40
2018-08-13T11:52:56.899Z,2.30
2018-08-13T11:55:26.750Z,2.47
2018-08-13T11:57:56.050Z,2.60
2018-08-13T12:00:25.435Z,2.50
2018-08-13T12:02:54.732Z,2.80
2018-08-13T12:05:24.069Z,2.23
2018-08-13T12:07:53.354Z,3.30
2018-08-13T12:10:22.664Z,2.30
2018-08-13T12:12:51.977Z,2.63
2018-08-13T12:15:21.317Z,2.87
2018-08-13T12:17:50.952Z,2.70
2018-08-13T12:20:21.296Z,2.60
2018-08-13T12:22:50.593Z,2.50
2018-08-13T12:25:22.270Z,3.60
2018-08-13T12:27:52.148Z,2.77
2018-08-13T12:30:21.472Z,2.60
2018-08-13T12:32:51.561Z,2.77
2018-08-13T12:35:21.202Z,2.60
2018-08-13T12:37:50.803Z,2.50
2018-08-13T12:40:20.133Z,2.97
2018-08-13T12:42:49.491Z,2.80
2018-08-13T12:45:19.279Z,2.90
2018-08-13T12:47:48.645Z,2.63
2018-08-13T12:50:19.498Z,2.53
2018-08-13T12:52:50.067Z,2.53
2018-08-13T12:55:19.480Z,3.00
2018-08-13T12:57:48.819Z,2.87
2018-08-13T13:00:18.858Z,2.80
2018-08-13T13:02:48.178Z,2.50
2018-08-13T13:05:18.265Z,2.80
2018-08-13T13:07:47.584Z,2.33
2018-08-13T13:10:17.735Z,2.10
2018-08-13T13:12:47.225Z,2.80
2018-08-13T13:15:19.257Z,2.73
2018-08-13T13:17:48.706Z,2.87
2018-08-13T13:20:19.917Z,2.40
2018-08-13T13:22:49.749Z,2.57
2018-08-13T13:25:19.535Z,2.20
2018-08-13T13:27:49.216Z,2.90
2018-08-13T13:30:18.551Z,2.10
2018-08-13T13:32:47.905Z,2.87
2018-08-13T13:35:17.943Z,2.30
2018-08-13T13:37:47.325Z,2.20
2018-08-13T13:40:17.641Z,2.50
2018-08-13T13:42:46.946Z,2.60
2018-08-13T13:45:17.370Z,2.53
2018-08-13T13:47:46.863Z,2.37
2018-08-13T13:50:18.491Z,2.30
2018-08-13T13:52:48.274Z,2.20
2018-08-13T13:55:18.004Z,2.33
2018-08-13T13:57:47.310Z,2.10
2018-08-13T14:00:19.579Z,2.30
2018-08-13T14:02:50.170Z,2.30
2018-08-13T14:05:19.778Z,2.10
2018-08-13T14:07:49.114Z,1.90
2018-08-13T14:10:20.749Z,2.73
2018-08-13T14:12:50.075Z,2.13
2018-08-13T14:15:21.405Z,2.37
2018-08-13T14:17:51.174Z,2.23
2018-08-13T14:20:20.850Z,4.07
2018-08-13T14:22:50.191Z,2.10
2018-08-13T14:25:19.497Z,3.87
2018-08-13T14:27:48.791Z,2.17
2018-08-13T14:30:20.609Z,2.03
2018-08-13T14:32:50.257Z,4.53
2018-08-13T14:35:20.811Z,2.37
2018-08-13T14:37:50.153Z,2.03
2018-08-13T14:40:19.493Z,2.10
2018-08-13T14:42:48.814Z,2.00
2018-08-13T14:45:19.243Z,3.40
2018-08-13T14:47:50.035Z,2.37
2018-08-13T14:50:19.438Z,1.80
2018-08-13T14:52:49.455Z,2.07
2018-08-13T14:55:20.819Z,3.10
2018-08-13T14:57:50.166Z,2.27
2018-08-13T15:00:23.658Z,2.30
2018-08-13T15:02:53.817Z,2.30
2018-08-13T15:05:23.155Z,2.13
2018-08-13T15:07:52.463Z,2.00
2018-08-13T15:10:23.067Z,2.37
2018-08-13T15:12:52.492Z,2.10
2018-08-13T15:15:21.807Z,1.83
2018-08-13T15:17:51.190Z,4.80
2018-08-13T15:20:25.582Z,2.30
2018-08-13T15:22:54.935Z,3.90
2018-08-13T15:25:24.258Z,1.90
2018-08-13T15:27:53.618Z,2.00
2018-08-13T15:30:23.350Z,2.27
2018-08-13T15:32:53.323Z,2.67
2018-08-13T15:35:22.733Z,2.40
2018-08-13T15:37:52.232Z,2.37
2018-08-13T15:40:21.544Z,2.50
2018-08-13T15:42:50.883Z,2.40
2018-08-13T15:45:21.486Z,2.30
2018-08-13T15:47:50.875Z,2.33
2018-08-13T15:50:21.102Z,2.20
2018-08-13T15:52:50.770Z,2.23
2018-08-13T15:55:20.336Z,2.43
2018-08-13T15:57:49.748Z,2.43
2018-08-13T16:00:21.300Z,2.10
2018-08-13T16:02:50.984Z,2.00
2018-08-13T16:05:20.410Z,2.47
2018-08-13T16:07:50.260Z,2.80
2018-08-13T16:10:19.718Z,2.17
2018-08-13T16:12:49.082Z,2.20
2018-08-13T16:15:18.567Z,2.63
2018-08-13T16:17:47.957Z,2.30
2018-08-13T16:20:18.766Z,2.40
2018-08-13T16:22:48.704Z,2.03
2018-08-13T16:25:18.290Z,2.10
2018-08-13T16:27:48.182Z,2.73
2018-08-13T16:30:20.996Z,2.43
2018-08-13T16:32:50.487Z,2.37
2018-08-13T16:35:20.297Z,2.43
2018-08-13T16:37:49.632Z,2.50
2018-08-13T16:40:19.499Z,2.73
2018-08-13T16:42:49.275Z,2.57
2018-08-13T16:45:19.639Z,3.50
2018-08-13T16:47:49.095Z,2.60
2018-08-13T16:50:21.327Z,2.50
2018-08-13T16:52:50.793Z,2.30
2018-08-13T16:55:21.243Z,2.33
2018-08-13T16:57:51.870Z,2.60
2018-08-13T17:00:24.452Z,3.43
2018-08-13T17:02:54.027Z,2.23
2018-08-13T17:05:23.528Z,2.27
2018-08-13T17:07:52.895Z,2.67
2018-08-13T17:10:26.617Z,3.20
2018-08-13T17:12:56.568Z,2.70
2018-08-13T17:15:27.211Z,2.77
2018-08-13T17:17:57.926Z,2.63
2018-08-13T17:20:29.117Z,2.67
2018-08-13T17:22:58.777Z,2.77
2018-08-13T17:25:28.247Z,2.20
2018-08-13T17:27:58.017Z,2.43
2018-08-13T17:30:27.754Z,2.23
2018-08-13T17:32:59.353Z,2.40
2018-08-13T17:35:32.375Z,2.53
2018-08-13T17:38:02.294Z,2.40
2018-08-13T17:40:31.862Z,3.20
2018-08-13T17:43:01.379Z,2.33
2018-08-13T17:45:30.623Z,2.50
2018-08-13T17:47:59.910Z,4.37
2018-08-13T17:50:29.239Z,2.40
2018-08-13T17:52:58.515Z,2.73
2018-08-13T17:55:27.876Z,2.63
2018-08-13T17:57:57.661Z,2.30
2018-08-13T18:00:27.564Z,2.63
2018-08-13T18:02:56.848Z,2.50
2018-08-13T18:05:27.144Z,2.57
2018-08-13T18:07:57.005Z,2.50
2018-08-13T18:10:29.105Z,4.43
2018-08-13T18:12:59.482Z,2.60
2018-08-13T18:15:28.848Z,3.67
2018-08-13T18:17:59.067Z,2.93
2018-08-13T18:20:28.860Z,2.80
2018-08-13T18:22:58.583Z,2.50
2018-08-13T18:25:27.973Z,2.07
2018-08-13T18:27:57.264Z,3.87
2018-08-13T18:30:27.910Z,3.37
2018-08-13T18:32:57.243Z,3.10
2018-08-13T18:35:27.247Z,1.93
2018-08-13T18:37:56.548Z,2.63
2018-08-13T18:40:33.505Z,2.40
2018-08-13T18:43:02.799Z,2.83
2018-08-13T18:45:32.125Z,2.97
2018-08-13T18:48:01.556Z,3.20
2018-08-13T18:50:30.913Z,2.27
2018-08-13T18:53:00.191Z,2.70
2018-08-13T18:55:29.546Z,2.83
2018-08-13T18:57:58.898Z,2.80
2018-08-13T19:00:29.689Z,2.57
2018-08-13T19:03:00.650Z,2.80
2018-08-13T19:05:30.026Z,2.70
2018-08-13T19:07:59.437Z,3.97
2018-08-13T19:10:28.792Z,4.40
2018-08-13T19:12:58.172Z,4.63
2018-08-13T19:15:28.469Z,3.30
2018-08-13T19:17:57.817Z,4.10
2018-08-13T19:20:27.125Z,4.27
2018-08-13T19:22:56.748Z,4.90
2018-08-13T19:25:28.005Z,3.80
2018-08-13T19:27:57.646Z,4.63
2018-08-13T19:30:27.505Z,3.90
2018-08-13T19:32:56.850Z,4.47
2018-08-13T19:35:26.730Z,4.40
2018-08-13T19:37:56.270Z,4.63
2018-08-13T19:40:26.921Z,3.77
2018-08-13T19:42:56.458Z,4.70
2018-08-13T19:45:26.224Z,4.67
2018-08-13T19:47:55.986Z,5.03
2018-08-13T19:50:25.835Z,4.33
2018-08-13T19:52:55.379Z,5.40
2018-08-13T19:55:25.037Z,5.03
2018-08-13T19:57:54.600Z,5.03
2018-08-13T20:00:26.976Z,4.80
2018-08-13T20:02:56.902Z,5.67
2018-08-13T20:05:27.565Z,4.33
2018-08-13T20:07:57.684Z,5.17
2018-08-13T20:10:27.559Z,5.80
2018-08-13T20:12:57.305Z,5.27
2018-08-13T20:15:28.470Z,6.57
2018-08-13T20:17:58.933Z,5.00
2018-08-13T20:20:29.068Z,5.80
2018-08-13T20:22:58.848Z,5.20
2018-08-13T20:25:28.535Z,5.63
2018-08-13T20:27:58.297Z,5.63
2018-08-13T20:30:27.620Z,4.97
2018-08-13T20:32:56.921Z,5.00
2018-08-13T20:35:26.241Z,4.70
2018-08-13T20:37:55.518Z,4.30
2018-08-13T20:40:24.874Z,4.67
2018-08-13T20:42:54.190Z,4.60
2018-08-13T20:45:23.527Z,8.23
2018-08-13T20:47:53.209Z,4.97
2018-08-13T20:50:23.942Z,4.00
2018-08-13T20:52:54.150Z,4.10
2018-08-13T20:55:27.981Z,4.83
2018-08-13T20:57:57.284Z,6.43
2018-08-13T21:00:28.223Z,8.30
2018-08-13T21:02:57.524Z,3.90
2018-08-13T21:05:26.897Z,3.83
2018-08-13T21:07:56.175Z,4.03
2018-08-13T21:10:26.066Z,4.80
2018-08-13T21:12:55.377Z,4.33
2018-08-13T21:15:24.919Z,3.93
2018-08-13T21:17:54.223Z,3.90
2018-08-13T21:20:24.864Z,4.83
2018-08-13T21:22:54.545Z,4.13
2018-08-13T21:25:23.917Z,4.33
2018-08-13T21:27:53.369Z,6.00
2018-08-13T21:30:22.687Z,4.43
2018-08-13T21:32:52.096Z,3.90
2018-08-13T21:35:24.213Z,3.83
2018-08-13T21:37:53.630Z,4.20
2018-08-13T21:40:22.918Z,4.40
2018-08-13T21:42:52.431Z,3.90
2018-08-13T21:45:21.721Z,4.03
2018-08-13T21:47:51.086Z,4.43
2018-08-13T21:50:22.551Z,4.47
2018-08-13T21:52:52.599Z,4.00
2018-08-13T21:55:21.938Z,4.13
2018-08-13T21:57:51.272Z,4.60
2018-08-13T22:00:25.409Z,4.33
2018-08-13T22:02:55.595Z,4.20
2018-08-13T22:05:25.001Z,4.63
2018-08-13T22:07:54.347Z,4.53
2018-08-13T22:10:23.722Z,4.80
2018-08-13T22:12:53.096Z,4.13
2018-08-13T22:15:24.651Z,4.20
2018-08-13T22:17:54.808Z,4.10
2018-08-13T22:20:24.538Z,4.57
2018-08-13T22:22:53.925Z,4.73
2018-08-13T22:25:27.966Z,4.07
2018-08-13T22:27:57.406Z,4.97
2018-08-13T22:30:26.903Z,4.03
2018-08-13T22:32:56.730Z,4.07
2018-08-13T22:35:26.059Z,4.30
2018-08-13T22:37:55.846Z,3.87
2018-08-13T22:40:25.177Z,4.00
2018-08-13T22:42:54.527Z,3.60
2018-08-13T22:45:24.458Z,3.53
2018-08-13T22:47:53.803Z,3.10
2018-08-13T22:50:23.171Z,3.00
2018-08-13T22:52:52.518Z,3.70
2018-08-13T22:55:21.799Z,3.73
2018-08-13T22:57:51.659Z,4.00
2018-08-13T23:00:21.427Z,3.90
2018-08-13T23:02:51.378Z,4.40
2018-08-13T23:05:23.180Z,3.93
2018-08-13T23:07:52.857Z,4.00
2018-08-13T23:10:23.447Z,3.67
2018-08-13T23:12:54.080Z,4.27
2018-08-13T23:15:23.450Z,3.57
2018-08-13T23:17:53.245Z,4.13
2018-08-13T23:20:24.396Z,3.60
2018-08-13T23:22:57.344Z,4.27
2018-08-13T23:25:27.630Z,3.47
2018-08-13T23:27:58.578Z,3.90
2018-08-13T23:30:28.008Z,4.30
2018-08-13T23:32:58.486Z,3.73
2018-08-13T23:35:28.506Z,3.73
2018-08-13T23:37:57.817Z,4.13
2018-08-13T23:40:27.392Z,3.73
2018-08-13T23:42:56.707Z,4.33
2018-08-13T23:45:31.167Z,4.90
2018-08-13T23:48:00.673Z,3.67
2018-08-13T23:50:30.259Z,3.97
2018-08-13T23:53:01.482Z,3.63
2018-08-13T23:55:36.164Z,4.83
2018-08-13T23:58:08.290Z,3.80
